Terminal Aerodrome Forecast
Issued by NWS Binghamton, NY

Home | Current Version | Previous Version | Text Only | Print | Product List | Glossary On
Versions: 1 2 3 4 5 6 7 8 9 10 11 12 13 14 15
846
FTUS41 KBGM 211733
TAFSYR
TAF
KSYR 211733Z 2118/2218 15011KT P6SM BKN150
     FM220100 18007KT P6SM -SHRA OVC050
     FM220500 17004KT P6SM OVC020=

USA.gov is the U.S. government's official web portal to all federal, state and local government web resources and services.